sensor_id;sensor_type;location;lat;lon;timestamp;P1;durP1;ratioP1;P2;durP2;ratioP2
55601;SDS011;59921;51.332;12.410;2023-04-15T00:01:21;2.20;;;1.60;;
55601;SDS011;59921;51.332;12.410;2023-04-15T00:03:49;1.50;;;1.20;;
55601;SDS011;59921;51.332;12.410;2023-04-15T00:06:21;1.50;;;1.20;;
55601;SDS011;59921;51.332;12.410;2023-04-15T00:08:47;1.67;;;1.20;;
55601;SDS011;59921;51.332;12.410;2023-04-15T00:11:15;1.90;;;1.35;;
55601;SDS011;59921;51.332;12.410;2023-04-15T00:13:41;1.40;;;1.20;;
55601;SDS011;59921;51.332;12.410;2023-04-15T00:16:07;2.20;;;1.40;;
55601;SDS011;59921;51.332;12.410;2023-04-15T00:18:34;1.60;;;1.25;;
55601;SDS011;59921;51.332;12.410;2023-04-15T00:21:00;2.22;;;1.30;;
55601;SDS011;59921;51.332;12.410;2023-04-15T00:23:26;1.95;;;1.25;;
55601;SDS011;59921;51.332;12.410;2023-04-15T00:25:52;2.05;;;1.23;;
55601;SDS011;59921;51.332;12.410;2023-04-15T00:28:18;1.70;;;1.27;;
55601;SDS011;59921;51.332;12.410;2023-04-15T00:30:44;1.95;;;1.27;;
55601;SDS011;59921;51.332;12.410;2023-04-15T00:33:10;1.40;;;1.20;;
55601;SDS011;59921;51.332;12.410;2023-04-15T00:35:36;2.33;;;1.38;;
55601;SDS011;59921;51.332;12.410;2023-04-15T00:38:03;1.48;;;1.20;;
55601;SDS011;59921;51.332;12.410;2023-04-15T00:40:33;1.50;;;1.23;;
55601;SDS011;59921;51.332;12.410;2023-04-15T00:42:59;1.85;;;1.33;;
55601;SDS011;59921;51.332;12.410;2023-04-15T00:45:25;1.80;;;1.23;;
55601;SDS011;59921;51.332;12.410;2023-04-15T00:47:52;2.03;;;1.38;;
55601;SDS011;59921;51.332;12.410;2023-04-15T00:50:17;1.88;;;1.45;;
55601;SDS011;59921;51.332;12.410;2023-04-15T00:52:43;2.15;;;1.40;;
55601;SDS011;59921;51.332;12.410;2023-04-15T00:55:09;2.10;;;1.50;;
55601;SDS011;59921;51.332;12.410;2023-04-15T00:57:35;1.60;;;1.13;;
55601;SDS011;59921;51.332;12.410;2023-04-15T01:00:01;1.70;;;1.30;;
55601;SDS011;59921;51.332;12.410;2023-04-15T01:02:28;1.92;;;1.30;;
55601;SDS011;59921;51.332;12.410;2023-04-15T01:04:56;2.08;;;1.38;;
55601;SDS011;59921;51.332;12.410;2023-04-15T01:07:22;1.90;;;1.30;;
55601;SDS011;59921;51.332;12.410;2023-04-15T01:09:47;1.70;;;1.33;;
55601;SDS011;59921;51.332;12.410;2023-04-15T01:12:14;2.08;;;1.50;;
55601;SDS011;59921;51.332;12.410;2023-04-15T01:14:41;2.67;;;1.40;;
55601;SDS011;59921;51.332;12.410;2023-04-15T01:17:07;1.90;;;1.42;;
55601;SDS011;59921;51.332;12.410;2023-04-15T01:19:33;2.08;;;1.30;;
55601;SDS011;59921;51.332;12.410;2023-04-15T01:22:01;1.90;;;1.40;;
55601;SDS011;59921;51.332;12.410;2023-04-15T01:24:27;2.22;;;1.40;;
55601;SDS011;59921;51.332;12.410;2023-04-15T01:26:56;2.03;;;1.33;;
55601;SDS011;59921;51.332;12.410;2023-04-15T01:29:21;1.98;;;1.30;;
55601;SDS011;59921;51.332;12.410;2023-04-15T01:31:50;2.60;;;1.50;;
55601;SDS011;59921;51.332;12.410;2023-04-15T01:34:17;2.22;;;1.50;;
55601;SDS011;59921;51.332;12.410;2023-04-15T01:36:43;2.15;;;1.40;;
55601;SDS011;59921;51.332;12.410;2023-04-15T01:39:09;1.60;;;1.33;;
55601;SDS011;59921;51.332;12.410;2023-04-15T01:41:35;2.03;;;1.50;;
55601;SDS011;59921;51.332;12.410;2023-04-15T01:44:00;1.77;;;1.40;;
55601;SDS011;59921;51.332;12.410;2023-04-15T01:46:26;1.50;;;1.20;;
55601;SDS011;59921;51.332;12.410;2023-04-15T01:48:52;1.80;;;1.20;;
55601;SDS011;59921;51.332;12.410;2023-04-15T01:51:17;1.38;;;1.20;;
55601;SDS011;59921;51.332;12.410;2023-04-15T01:53:43;2.10;;;1.27;;
55601;SDS011;59921;51.332;12.410;2023-04-15T01:56:08;1.75;;;1.17;;
55601;SDS011;59921;51.332;12.410;2023-04-15T01:58:34;1.70;;;1.27;;
55601;SDS011;59921;51.332;12.410;2023-04-15T02:01:00;1.17;;;1.08;;
55601;SDS011;59921;51.332;12.410;2023-04-15T02:03:27;1.48;;;1.23;;
55601;SDS011;59921;51.332;12.410;2023-04-15T02:05:53;1.63;;;1.30;;
55601;SDS011;59921;51.332;12.410;2023-04-15T02:08:19;1.60;;;1.40;;
55601;SDS011;59921;51.332;12.410;2023-04-15T02:10:44;1.70;;;1.30;;
55601;SDS011;59921;51.332;12.410;2023-04-15T02:13:10;1.48;;;1.10;;
55601;SDS011;59921;51.332;12.410;2023-04-15T02:15:36;1.20;;;1.10;;
55601;SDS011;59921;51.332;12.410;2023-04-15T02:18:01;1.73;;;1.23;;
55601;SDS011;59921;51.332;12.410;2023-04-15T02:20:28;1.40;;;1.10;;
55601;SDS011;59921;51.332;12.410;2023-04-15T02:22:55;1.92;;;1.30;;
55601;SDS011;59921;51.332;12.410;2023-04-15T02:25:21;1.45;;;1.20;;
55601;SDS011;59921;51.332;12.410;2023-04-15T02:27:47;2.00;;;1.30;;
55601;SDS011;59921;51.332;12.410;2023-04-15T02:30:12;1.80;;;1.30;;
55601;SDS011;59921;51.332;12.410;2023-04-15T02:32:39;1.85;;;1.20;;
55601;SDS011;59921;51.332;12.410;2023-04-15T02:35:05;1.55;;;1.30;;
55601;SDS011;59921;51.332;12.410;2023-04-15T02:37:35;1.55;;;1.30;;
55601;SDS011;59921;51.332;12.410;2023-04-15T02:40:07;1.55;;;1.23;;
55601;SDS011;59921;51.332;12.410;2023-04-15T02:42:34;1.25;;;1.10;;
55601;SDS011;59921;51.332;12.410;2023-04-15T02:45:00;1.45;;;1.17;;
55601;SDS011;59921;51.332;12.410;2023-04-15T02:47:25;1.50;;;1.15;;
55601;SDS011;59921;51.332;12.410;2023-04-15T02:49:51;2.42;;;1.27;;
55601;SDS011;59921;51.332;12.410;2023-04-15T02:52:17;1.58;;;1.35;;
55601;SDS011;59921;51.332;12.410;2023-04-15T02:54:42;2.00;;;1.27;;
55601;SDS011;59921;51.332;12.410;2023-04-15T02:57:08;1.45;;;1.20;;
55601;SDS011;59921;51.332;12.410;2023-04-15T02:59:36;1.45;;;1.13;;
55601;SDS011;59921;51.332;12.410;2023-04-15T03:02:01;1.48;;;1.20;;
55601;SDS011;59921;51.332;12.410;2023-04-15T03:04:27;1.50;;;1.30;;
55601;SDS011;59921;51.332;12.410;2023-04-15T03:06:54;1.42;;;1.00;;
55601;SDS011;59921;51.332;12.410;2023-04-15T03:09:20;2.08;;;1.30;;
55601;SDS011;59921;51.332;12.410;2023-04-15T03:11:46;1.27;;;1.10;;
55601;SDS011;59921;51.332;12.410;2023-04-15T03:14:12;1.85;;;1.40;;
55601;SDS011;59921;51.332;12.410;2023-04-15T03:16:37;1.20;;;1.10;;
55601;SDS011;59921;51.332;12.410;2023-04-15T03:19:03;1.48;;;1.20;;
55601;SDS011;59921;51.332;12.410;2023-04-15T03:21:28;1.55;;;1.02;;
55601;SDS011;59921;51.332;12.410;2023-04-15T03:23:54;1.63;;;1.20;;
55601;SDS011;59921;51.332;12.410;2023-04-15T03:26:28;1.75;;;1.33;;
55601;SDS011;59921;51.332;12.410;2023-04-15T03:28:55;1.45;;;1.30;;
55601;SDS011;59921;51.332;12.410;2023-04-15T03:31:20;1.90;;;1.08;;
55601;SDS011;59921;51.332;12.410;2023-04-15T03:33:46;1.42;;;1.20;;
55601;SDS011;59921;51.332;12.410;2023-04-15T03:36:11;1.90;;;1.35;;
55601;SDS011;59921;51.332;12.410;2023-04-15T03:38:37;1.73;;;1.20;;
55601;SDS011;59921;51.332;12.410;2023-04-15T03:41:02;2.05;;;1.30;;
55601;SDS011;59921;51.332;12.410;2023-04-15T03:43:28;1.60;;;1.30;;
55601;SDS011;59921;51.332;12.410;2023-04-15T03:45:56;1.27;;;1.08;;
55601;SDS011;59921;51.332;12.410;2023-04-15T03:48:22;1.38;;;1.20;;
55601;SDS011;59921;51.332;12.410;2023-04-15T03:50:47;1.35;;;1.10;;
55601;SDS011;59921;51.332;12.410;2023-04-15T03:53:13;1.35;;;1.20;;
55601;SDS011;59921;51.332;12.410;2023-04-15T03:55:40;2.38;;;1.27;;
55601;SDS011;59921;51.332;12.410;2023-04-15T03:58:06;1.63;;;1.27;;
55601;SDS011;59921;51.332;12.410;2023-04-15T04:00:31;1.48;;;1.20;;
55601;SDS011;59921;51.332;12.410;2023-04-15T04:02:57;1.77;;;1.30;;
55601;SDS011;59921;51.332;12.410;2023-04-15T04:05:23;1.60;;;1.13;;
55601;SDS011;59921;51.332;12.410;2023-04-15T04:07:48;1.40;;;1.17;;
55601;SDS011;59921;51.332;12.410;2023-04-15T04:10:14;1.52;;;1.20;;
55601;SDS011;59921;51.332;12.410;2023-04-15T04:12:40;1.60;;;1.20;;
55601;SDS011;59921;51.332;12.410;2023-04-15T04:15:08;1.30;;;1.08;;
55601;SDS011;59921;51.332;12.410;2023-04-15T04:17:33;1.45;;;1.20;;
55601;SDS011;59921;51.332;12.410;2023-04-15T04:19:59;1.85;;;1.20;;
55601;SDS011;59921;51.332;12.410;2023-04-15T04:22:25;1.23;;;1.13;;
55601;SDS011;59921;51.332;12.410;2023-04-15T04:24:51;1.70;;;1.25;;
55601;SDS011;59921;51.332;12.410;2023-04-15T04:27:16;1.73;;;1.20;;
55601;SDS011;59921;51.332;12.410;2023-04-15T04:29:42;1.30;;;1.10;;
55601;SDS011;59921;51.332;12.410;2023-04-15T04:32:08;1.45;;;1.08;;
55601;SDS011;59921;51.332;12.410;2023-04-15T04:34:33;1.50;;;1.15;;
55601;SDS011;59921;51.332;12.410;2023-04-15T04:36:59;1.48;;;1.17;;
55601;SDS011;59921;51.332;12.410;2023-04-15T04:39:25;1.13;;;1.00;;
55601;SDS011;59921;51.332;12.410;2023-04-15T04:41:51;1.55;;;1.00;;
55601;SDS011;59921;51.332;12.410;2023-04-15T04:44:16;1.50;;;1.10;;
55601;SDS011;59921;51.332;12.410;2023-04-15T04:46:42;1.25;;;1.15;;
55601;SDS011;59921;51.332;12.410;2023-04-15T04:49:08;1.35;;;1.08;;
55601;SDS011;59921;51.332;12.410;2023-04-15T04:51:34;1.67;;;1.10;;
55601;SDS011;59921;51.332;12.410;2023-04-15T04:54:00;2.13;;;1.20;;
55601;SDS011;59921;51.332;12.410;2023-04-15T04:56:26;1.40;;;1.10;;
55601;SDS011;59921;51.332;12.410;2023-04-15T04:58:51;1.40;;;1.10;;
55601;SDS011;59921;51.332;12.410;2023-04-15T05:01:17;1.67;;;1.10;;
55601;SDS011;59921;51.332;12.410;2023-04-15T05:03:43;0.98;;;0.85;;
55601;SDS011;59921;51.332;12.410;2023-04-15T05:06:08;1.27;;;1.17;;
55601;SDS011;59921;51.332;12.410;2023-04-15T05:08:34;1.40;;;1.23;;
55601;SDS011;59921;51.332;12.410;2023-04-15T05:11:01;1.50;;;1.25;;
55601;SDS011;59921;51.332;12.410;2023-04-15T05:13:27;1.38;;;1.15;;
55601;SDS011;59921;51.332;12.410;2023-04-15T05:15:52;1.40;;;1.08;;
55601;SDS011;59921;51.332;12.410;2023-04-15T05:18:18;1.17;;;1.00;;
55601;SDS011;59921;51.332;12.410;2023-04-15T05:20:43;1.20;;;0.90;;
55601;SDS011;59921;51.332;12.410;2023-04-15T05:23:09;1.77;;;1.20;;
55601;SDS011;59921;51.332;12.410;2023-04-15T05:25:34;1.27;;;1.00;;
55601;SDS011;59921;51.332;12.410;2023-04-15T05:28:00;1.33;;;1.00;;
55601;SDS011;59921;51.332;12.410;2023-04-15T05:30:26;1.13;;;1.00;;
55601;SDS011;59921;51.332;12.410;2023-04-15T05:32:51;1.23;;;1.10;;
55601;SDS011;59921;51.332;12.410;2023-04-15T05:35:17;1.00;;;0.85;;
55601;SDS011;59921;51.332;12.410;2023-04-15T05:37:43;1.42;;;1.00;;
55601;SDS011;59921;51.332;12.410;2023-04-15T05:40:10;1.00;;;0.90;;
55601;SDS011;59921;51.332;12.410;2023-04-15T05:42:36;1.10;;;1.00;;
55601;SDS011;59921;51.332;12.410;2023-04-15T05:45:01;1.27;;;0.98;;
55601;SDS011;59921;51.332;12.410;2023-04-15T05:47:30;1.35;;;1.10;;
55601;SDS011;59921;51.332;12.410;2023-04-15T05:49:55;1.17;;;1.00;;
55601;SDS011;59921;51.332;12.410;2023-04-15T05:52:23;1.20;;;0.93;;
55601;SDS011;59921;51.332;12.410;2023-04-15T05:54:48;1.20;;;0.93;;
55601;SDS011;59921;51.332;12.410;2023-04-15T05:57:14;1.13;;;1.02;;
55601;SDS011;59921;51.332;12.410;2023-04-15T05:59:40;0.80;;;0.80;;
55601;SDS011;59921;51.332;12.410;2023-04-15T06:02:06;1.10;;;1.00;;
55601;SDS011;59921;51.332;12.410;2023-04-15T06:04:33;1.00;;;0.90;;
55601;SDS011;59921;51.332;12.410;2023-04-15T06:06:59;1.40;;;1.10;;
55601;SDS011;59921;51.332;12.410;2023-04-15T06:09:25;1.50;;;1.02;;
55601;SDS011;59921;51.332;12.410;2023-04-15T06:11:51;0.80;;;0.73;;
55601;SDS011;59921;51.332;12.410;2023-04-15T06:14:17;1.08;;;0.90;;
55601;SDS011;59921;51.332;12.410;2023-04-15T06:16:43;1.10;;;0.93;;
55601;SDS011;59921;51.332;12.410;2023-04-15T06:19:08;1.25;;;0.98;;
55601;SDS011;59921;51.332;12.410;2023-04-15T06:21:34;1.00;;;0.90;;
55601;SDS011;59921;51.332;12.410;2023-04-15T06:24:00;1.02;;;0.93;;
55601;SDS011;59921;51.332;12.410;2023-04-15T06:26:26;1.05;;;0.90;;
55601;SDS011;59921;51.332;12.410;2023-04-15T06:28:52;1.00;;;0.90;;
55601;SDS011;59921;51.332;12.410;2023-04-15T06:31:18;0.80;;;0.80;;
55601;SDS011;59921;51.332;12.410;2023-04-15T06:33:43;1.10;;;0.98;;
55601;SDS011;59921;51.332;12.410;2023-04-15T06:36:09;1.20;;;1.00;;
55601;SDS011;59921;51.332;12.410;2023-04-15T06:38:35;1.00;;;0.90;;
55601;SDS011;59921;51.332;12.410;2023-04-15T06:41:01;1.38;;;1.05;;
55601;SDS011;59921;51.332;12.410;2023-04-15T06:43:28;1.10;;;1.00;;
55601;SDS011;59921;51.332;12.410;2023-04-15T06:45:53;1.00;;;0.90;;
55601;SDS011;59921;51.332;12.410;2023-04-15T06:48:19;1.13;;;1.00;;
55601;SDS011;59921;51.332;12.410;2023-04-15T06:50:44;1.13;;;1.02;;
55601;SDS011;59921;51.332;12.410;2023-04-15T06:53:10;0.88;;;0.80;;
55601;SDS011;59921;51.332;12.410;2023-04-15T06:55:36;1.20;;;1.00;;
55601;SDS011;59921;51.332;12.410;2023-04-15T06:58:01;1.27;;;0.90;;
55601;SDS011;59921;51.332;12.410;2023-04-15T07:00:27;1.15;;;0.88;;
55601;SDS011;59921;51.332;12.410;2023-04-15T07:02:53;1.15;;;1.00;;
55601;SDS011;59921;51.332;12.410;2023-04-15T07:05:19;1.17;;;0.95;;
55601;SDS011;59921;51.332;12.410;2023-04-15T07:07:45;1.20;;;1.00;;
55601;SDS011;59921;51.332;12.410;2023-04-15T07:10:11;1.00;;;0.90;;
55601;SDS011;59921;51.332;12.410;2023-04-15T07:12:36;1.00;;;0.90;;
55601;SDS011;59921;51.332;12.410;2023-04-15T07:15:02;1.15;;;0.90;;
55601;SDS011;59921;51.332;12.410;2023-04-15T07:17:28;1.00;;;0.82;;
55601;SDS011;59921;51.332;12.410;2023-04-15T07:19:54;1.30;;;1.00;;
55601;SDS011;59921;51.332;12.410;2023-04-15T07:22:19;1.15;;;1.00;;
55601;SDS011;59921;51.332;12.410;2023-04-15T07:24:45;1.13;;;0.80;;
55601;SDS011;59921;51.332;12.410;2023-04-15T07:27:10;1.25;;;1.10;;
55601;SDS011;59921;51.332;12.410;2023-04-15T07:29:36;1.23;;;1.00;;
55601;SDS011;59921;51.332;12.410;2023-04-15T07:32:02;1.65;;;1.10;;
55601;SDS011;59921;51.332;12.410;2023-04-15T07:34:27;1.75;;;1.10;;
55601;SDS011;59921;51.332;12.410;2023-04-15T07:36:56;0.80;;;0.80;;
55601;SDS011;59921;51.332;12.410;2023-04-15T07:39:22;1.42;;;0.80;;
55601;SDS011;59921;51.332;12.410;2023-04-15T07:41:47;1.20;;;1.00;;
55601;SDS011;59921;51.332;12.410;2023-04-15T07:44:13;0.77;;;0.75;;
55601;SDS011;59921;51.332;12.410;2023-04-15T07:46:39;1.05;;;0.80;;
55601;SDS011;59921;51.332;12.410;2023-04-15T07:49:05;1.00;;;0.90;;
55601;SDS011;59921;51.332;12.410;2023-04-15T07:51:31;1.17;;;0.95;;
55601;SDS011;59921;51.332;12.410;2023-04-15T07:53:57;1.00;;;0.90;;
55601;SDS011;59921;51.332;12.410;2023-04-15T07:56:23;1.05;;;0.90;;
55601;SDS011;59921;51.332;12.410;2023-04-15T07:58:49;1.10;;;0.90;;
55601;SDS011;59921;51.332;12.410;2023-04-15T08:01:14;1.48;;;0.90;;
55601;SDS011;59921;51.332;12.410;2023-04-15T08:03:40;0.90;;;0.77;;
55601;SDS011;59921;51.332;12.410;2023-04-15T08:06:06;1.00;;;0.90;;
55601;SDS011;59921;51.332;12.410;2023-04-15T08:08:32;1.30;;;0.90;;
55601;SDS011;59921;51.332;12.410;2023-04-15T08:10:57;0.88;;;0.80;;
55601;SDS011;59921;51.332;12.410;2023-04-15T08:13:23;1.00;;;0.90;;
55601;SDS011;59921;51.332;12.410;2023-04-15T08:15:52;0.90;;;0.80;;
55601;SDS011;59921;51.332;12.410;2023-04-15T08:18:37;1.10;;;0.80;;
55601;SDS011;59921;51.332;12.410;2023-04-15T08:21:03;1.00;;;0.90;;
55601;SDS011;59921;51.332;12.410;2023-04-15T08:23:28;1.13;;;0.90;;
55601;SDS011;59921;51.332;12.410;2023-04-15T08:25:54;1.33;;;0.95;;
55601;SDS011;59921;51.332;12.410;2023-04-15T08:28:20;1.30;;;0.80;;
55601;SDS011;59921;51.332;12.410;2023-04-15T08:30:45;1.08;;;0.90;;
55601;SDS011;59921;51.332;12.410;2023-04-15T08:33:11;1.30;;;0.98;;
55601;SDS011;59921;51.332;12.410;2023-04-15T08:35:37;1.00;;;0.90;;
55601;SDS011;59921;51.332;12.410;2023-04-15T08:38:03;1.08;;;0.90;;
55601;SDS011;59921;51.332;12.410;2023-04-15T08:40:30;1.10;;;0.98;;
55601;SDS011;59921;51.332;12.410;2023-04-15T08:43:09;0.90;;;0.80;;
55601;SDS011;59921;51.332;12.410;2023-04-15T08:45:37;1.00;;;0.80;;
55601;SDS011;59921;51.332;12.410;2023-04-15T08:48:03;0.80;;;0.80;;
55601;SDS011;59921;51.332;12.410;2023-04-15T08:50:31;1.10;;;0.90;;
55601;SDS011;59921;51.332;12.410;2023-04-15T08:52:59;1.00;;;0.90;;
55601;SDS011;59921;51.332;12.410;2023-04-15T08:55:27;1.13;;;0.93;;
55601;SDS011;59921;51.332;12.410;2023-04-15T08:57:57;0.80;;;0.80;;
55601;SDS011;59921;51.332;12.410;2023-04-15T09:00:23;1.20;;;0.90;;
55601;SDS011;59921;51.332;12.410;2023-04-15T09:02:51;1.02;;;0.90;;
55601;SDS011;59921;51.332;12.410;2023-04-15T09:05:16;1.00;;;0.90;;
55601;SDS011;59921;51.332;12.410;2023-04-15T09:07:42;1.10;;;0.90;;
55601;SDS011;59921;51.332;12.410;2023-04-15T09:10:08;0.90;;;0.80;;
55601;SDS011;59921;51.332;12.410;2023-04-15T09:12:36;1.33;;;1.05;;
55601;SDS011;59921;51.332;12.410;2023-04-15T09:15:02;1.13;;;1.00;;
55601;SDS011;59921;51.332;12.410;2023-04-15T09:17:28;1.05;;;0.90;;
55601;SDS011;59921;51.332;12.410;2023-04-15T09:20:15;1.17;;;0.95;;
55601;SDS011;59921;51.332;12.410;2023-04-15T09:22:45;1.10;;;1.00;;
55601;SDS011;59921;51.332;12.410;2023-04-15T09:27:50;1.40;;;1.10;;
55601;SDS011;59921;51.332;12.410;2023-04-15T09:30:17;1.10;;;0.90;;
55601;SDS011;59921;51.332;12.410;2023-04-15T09:32:52;1.20;;;1.10;;
55601;SDS011;59921;51.332;12.410;2023-04-15T09:35:22;1.10;;;1.00;;
55601;SDS011;59921;51.332;12.410;2023-04-15T09:37:49;1.38;;;1.20;;
55601;SDS011;59921;51.332;12.410;2023-04-15T09:40:34;0.98;;;0.88;;
55601;SDS011;59921;51.332;12.410;2023-04-15T09:43:00;1.00;;;0.90;;
55601;SDS011;59921;51.332;12.410;2023-04-15T09:45:27;1.25;;;1.00;;
55601;SDS011;59921;51.332;12.410;2023-04-15T09:47:53;1.52;;;0.93;;
55601;SDS011;59921;51.332;12.410;2023-04-15T09:50:19;1.30;;;1.10;;
55601;SDS011;59921;51.332;12.410;2023-04-15T09:52:45;1.10;;;1.00;;
55601;SDS011;59921;51.332;12.410;2023-04-15T09:55:12;1.58;;;1.10;;
55601;SDS011;59921;51.332;12.410;2023-04-15T09:57:39;1.30;;;1.10;;
55601;SDS011;59921;51.332;12.410;2023-04-15T10:00:14;1.48;;;1.20;;
55601;SDS011;59921;51.332;12.410;2023-04-15T10:02:40;1.23;;;1.13;;
55601;SDS011;59921;51.332;12.410;2023-04-15T10:05:07;1.40;;;1.15;;
55601;SDS011;59921;51.332;12.410;2023-04-15T10:07:36;1.20;;;1.10;;
55601;SDS011;59921;51.332;12.410;2023-04-15T10:10:02;1.30;;;1.20;;
55601;SDS011;59921;51.332;12.410;2023-04-15T10:12:29;1.20;;;1.10;;
55601;SDS011;59921;51.332;12.410;2023-04-15T10:14:57;1.30;;;1.15;;
55601;SDS011;59921;51.332;12.410;2023-04-15T10:17:27;1.58;;;1.20;;
55601;SDS011;59921;51.332;12.410;2023-04-15T10:20:00;1.10;;;1.00;;
55601;SDS011;59921;51.332;12.410;2023-04-15T10:22:27;1.65;;;1.20;;
55601;SDS011;59921;51.332;12.410;2023-04-15T10:24:57;1.55;;;1.20;;
55601;SDS011;59921;51.332;12.410;2023-04-15T10:27:25;1.20;;;1.10;;
55601;SDS011;59921;51.332;12.410;2023-04-15T10:29:51;1.10;;;1.00;;
55601;SDS011;59921;51.332;12.410;2023-04-15T10:32:17;1.25;;;1.15;;
55601;SDS011;59921;51.332;12.410;2023-04-15T10:34:46;1.67;;;1.20;;
55601;SDS011;59921;51.332;12.410;2023-04-15T10:37:18;1.70;;;1.30;;
55601;SDS011;59921;51.332;12.410;2023-04-15T10:39:46;1.40;;;1.20;;
55601;SDS011;59921;51.332;12.410;2023-04-15T10:42:13;1.40;;;1.30;;
55601;SDS011;59921;51.332;12.410;2023-04-15T10:44:49;1.40;;;1.30;;
55601;SDS011;59921;51.332;12.410;2023-04-15T10:47:19;1.48;;;1.20;;
55601;SDS011;59921;51.332;12.410;2023-04-15T10:49:49;1.60;;;1.20;;
55601;SDS011;59921;51.332;12.410;2023-04-15T10:52:23;1.40;;;1.20;;
55601;SDS011;59921;51.332;12.410;2023-04-15T10:54:57;1.80;;;1.33;;
55601;SDS011;59921;51.332;12.410;2023-04-15T10:57:40;1.83;;;1.23;;
55601;SDS011;59921;51.332;12.410;2023-04-15T11:02:46;1.48;;;1.08;;
55601;SDS011;59921;51.332;12.410;2023-04-15T11:13:47;1.58;;;1.40;;
55601;SDS011;59921;51.332;12.410;2023-04-15T11:16:14;1.98;;;1.40;;
55601;SDS011;59921;51.332;12.410;2023-04-15T11:18:40;2.00;;;1.42;;
55601;SDS011;59921;51.332;12.410;2023-04-15T11:21:06;1.52;;;1.33;;
55601;SDS011;59921;51.332;12.410;2023-04-15T11:26:13;2.05;;;1.50;;
55601;SDS011;59921;51.332;12.410;2023-04-15T11:28:40;1.70;;;1.60;;
55601;SDS011;59921;51.332;12.410;2023-04-15T11:31:08;1.95;;;1.60;;
55601;SDS011;59921;51.332;12.410;2023-04-15T11:33:36;2.10;;;1.75;;
55601;SDS011;59921;51.332;12.410;2023-04-15T11:36:09;1.63;;;1.48;;
55601;SDS011;59921;51.332;12.410;2023-04-15T11:38:34;1.88;;;1.52;;
55601;SDS011;59921;51.332;12.410;2023-04-15T11:41:02;2.03;;;1.70;;
55601;SDS011;59921;51.332;12.410;2023-04-15T11:43:28;2.00;;;1.70;;
55601;SDS011;59921;51.332;12.410;2023-04-15T11:46:00;2.08;;;1.60;;
55601;SDS011;59921;51.332;12.410;2023-04-15T11:48:27;2.17;;;1.77;;
55601;SDS011;59921;51.332;12.410;2023-04-15T11:50:59;2.53;;;1.70;;
55601;SDS011;59921;51.332;12.410;2023-04-15T11:53:36;2.13;;;1.67;;
55601;SDS011;59921;51.332;12.410;2023-04-15T11:56:03;2.33;;;1.63;;
55601;SDS011;59921;51.332;12.410;2023-04-15T11:58:30;1.80;;;1.60;;
55601;SDS011;59921;51.332;12.410;2023-04-15T12:00:59;2.38;;;2.00;;
55601;SDS011;59921;51.332;12.410;2023-04-15T12:03:41;1.95;;;1.70;;
55601;SDS011;59921;51.332;12.410;2023-04-15T12:11:41;2.58;;;1.85;;
55601;SDS011;59921;51.332;12.410;2023-04-15T12:16:53;2.22;;;1.80;;
55601;SDS011;59921;51.332;12.410;2023-04-15T12:19:33;3.42;;;2.13;;
55601;SDS011;59921;51.332;12.410;2023-04-15T12:22:01;2.20;;;1.85;;
55601;SDS011;59921;51.332;12.410;2023-04-15T12:24:32;2.63;;;1.95;;
55601;SDS011;59921;51.332;12.410;2023-04-15T12:29:34;1.88;;;1.60;;
55601;SDS011;59921;51.332;12.410;2023-04-15T12:32:05;2.70;;;1.98;;
55601;SDS011;59921;51.332;12.410;2023-04-15T12:34:35;2.00;;;1.50;;
55601;SDS011;59921;51.332;12.410;2023-04-15T12:37:03;2.25;;;1.95;;
55601;SDS011;59921;51.332;12.410;2023-04-15T12:39:31;2.08;;;1.77;;
55601;SDS011;59921;51.332;12.410;2023-04-15T12:42:00;2.30;;;2.00;;
55601;SDS011;59921;51.332;12.410;2023-04-15T12:44:25;2.50;;;1.80;;
55601;SDS011;59921;51.332;12.410;2023-04-15T12:46:51;2.60;;;2.13;;
55601;SDS011;59921;51.332;12.410;2023-04-15T12:49:17;2.40;;;1.80;;
55601;SDS011;59921;51.332;12.410;2023-04-15T12:51:49;2.67;;;2.03;;
55601;SDS011;59921;51.332;12.410;2023-04-15T12:54:19;2.83;;;2.20;;
55601;SDS011;59921;51.332;12.410;2023-04-15T12:56:46;1.92;;;1.73;;
55601;SDS011;59921;51.332;12.410;2023-04-15T12:59:13;2.65;;;1.92;;
55601;SDS011;59921;51.332;12.410;2023-04-15T13:01:40;3.13;;;2.10;;
55601;SDS011;59921;51.332;12.410;2023-04-15T13:04:06;2.50;;;2.17;;
55601;SDS011;59921;51.332;12.410;2023-04-15T13:06:32;3.08;;;1.92;;
55601;SDS011;59921;51.332;12.410;2023-04-15T13:08:58;3.00;;;2.15;;
55601;SDS011;59921;51.332;12.410;2023-04-15T13:11:24;2.92;;;1.90;;
55601;SDS011;59921;51.332;12.410;2023-04-15T13:13:50;2.10;;;1.77;;
55601;SDS011;59921;51.332;12.410;2023-04-15T13:16:17;2.10;;;1.90;;
55601;SDS011;59921;51.332;12.410;2023-04-15T13:18:43;2.50;;;1.90;;
55601;SDS011;59921;51.332;12.410;2023-04-15T13:21:10;2.88;;;2.25;;
55601;SDS011;59921;51.332;12.410;2023-04-15T13:23:36;2.55;;;2.28;;
55601;SDS011;59921;51.332;12.410;2023-04-15T13:26:05;2.75;;;1.90;;
55601;SDS011;59921;51.332;12.410;2023-04-15T13:28:31;2.50;;;2.00;;
55601;SDS011;59921;51.332;12.410;2023-04-15T13:30:56;2.80;;;2.28;;
55601;SDS011;59921;51.332;12.410;2023-04-15T13:33:22;2.33;;;1.80;;
55601;SDS011;59921;51.332;12.410;2023-04-15T13:35:47;2.08;;;1.80;;
55601;SDS011;59921;51.332;12.410;2023-04-15T13:38:13;2.10;;;1.80;;
55601;SDS011;59921;51.332;12.410;2023-04-15T13:40:38;3.20;;;1.88;;
55601;SDS011;59921;51.332;12.410;2023-04-15T13:43:04;2.67;;;2.15;;
55601;SDS011;59921;51.332;12.410;2023-04-15T13:45:30;2.40;;;2.00;;
55601;SDS011;59921;51.332;12.410;2023-04-15T13:47:55;3.08;;;2.20;;
55601;SDS011;59921;51.332;12.410;2023-04-15T13:50:21;4.25;;;2.00;;
55601;SDS011;59921;51.332;12.410;2023-04-15T13:52:47;2.42;;;2.10;;
55601;SDS011;59921;51.332;12.410;2023-04-15T13:55:12;2.38;;;1.95;;
55601;SDS011;59921;51.332;12.410;2023-04-15T13:57:38;2.63;;;2.20;;
55601;SDS011;59921;51.332;12.410;2023-04-15T14:00:04;2.45;;;1.90;;
55601;SDS011;59921;51.332;12.410;2023-04-15T14:02:30;2.40;;;2.03;;
55601;SDS011;59921;51.332;12.410;2023-04-15T14:04:55;2.33;;;1.95;;
55601;SDS011;59921;51.332;12.410;2023-04-15T14:07:21;2.75;;;2.00;;
55601;SDS011;59921;51.332;12.410;2023-04-15T14:09:47;2.45;;;2.10;;
55601;SDS011;59921;51.332;12.410;2023-04-15T14:12:12;2.28;;;1.85;;
55601;SDS011;59921;51.332;12.410;2023-04-15T14:14:38;2.50;;;1.95;;
55601;SDS011;59921;51.332;12.410;2023-04-15T14:17:04;2.63;;;2.20;;
55601;SDS011;59921;51.332;12.410;2023-04-15T14:19:30;2.28;;;1.80;;
55601;SDS011;59921;51.332;12.410;2023-04-15T14:21:56;2.38;;;2.00;;
55601;SDS011;59921;51.332;12.410;2023-04-15T14:24:21;2.10;;;1.90;;
55601;SDS011;59921;51.332;12.410;2023-04-15T14:26:47;2.17;;;1.98;;
55601;SDS011;59921;51.332;12.410;2023-04-15T14:29:12;2.20;;;1.98;;
55601;SDS011;59921;51.332;12.410;2023-04-15T14:31:38;2.47;;;2.10;;
55601;SDS011;59921;51.332;12.410;2023-04-15T14:34:04;2.65;;;2.25;;
55601;SDS011;59921;51.332;12.410;2023-04-15T14:36:30;2.33;;;2.00;;
55601;SDS011;59921;51.332;12.410;2023-04-15T14:38:56;2.38;;;2.03;;
55601;SDS011;59921;51.332;12.410;2023-04-15T14:41:22;2.08;;;1.80;;
55601;SDS011;59921;51.332;12.410;2023-04-15T14:43:48;2.20;;;2.00;;
55601;SDS011;59921;51.332;12.410;2023-04-15T14:46:13;2.65;;;2.00;;
55601;SDS011;59921;51.332;12.410;2023-04-15T14:48:39;2.83;;;2.00;;
55601;SDS011;59921;51.332;12.410;2023-04-15T14:51:05;1.98;;;1.80;;
55601;SDS011;59921;51.332;12.410;2023-04-15T14:53:31;2.97;;;1.92;;
55601;SDS011;59921;51.332;12.410;2023-04-15T14:55:57;3.25;;;2.17;;
55601;SDS011;59921;51.332;12.410;2023-04-15T14:58:22;2.72;;;2.00;;